x

West Santa Barbara 38 Nm West Of Santa Barbara, Ca (46054) Wave Buoy

10:50 - Tue 16th Sep 2014 All times are PDT. -7 hours from GMT.

  • Sig Wave height 5.2ft
  • Swell Direction
  • Peak Period 19s
  • Average Period 5s
  • Wind
    25mph, 29mph gusts
  • Sea Temp 61°f
  • Luft Temp 62°f
  • Sea Pressure 1007mb
  • West Santa Barbara  38 Nm West Of Santa Barbara, Ca
  • West Santa Barbara  38 Nm West Of Santa Barbara, Ca

More Historic Weather Station data

Upgrade to MSW Pro to gain access to the past 30 days of data for over 8000 Wavebouys and Weather Stations around the globe.

Join Pro

Comparision Forecast

View Surf forecast
   
Di 09/16 10:50 5ft 19s 5s 25 29 mph 1007mb 61f 62f
9:50 5.5ft 19s 5s 29 34 mph 1006.9mb 62f 62f
8:50 5.5ft 17s 5s 25 29 mph 1007mb 62f 63f
7:50 6ft 19s 5s 27 31 mph 1006.6mb 63f 63f
6:50 6ft 19s 6s 27 31 mph 1006.2mb 63f 63f
5:50 5.5ft 19s 5s 27 31 mph 1006.5mb 64f 63f
4:50 5ft 19s 5s 27 34 mph 1006.5mb 65f 64f
3:50 6ft 19s 6s 29 34 mph 1006.5mb 65f 64f
2:50 5ft 19s 5s 27 31 mph 1007mb 65f 64f
1:50 5ft 19s 5s 27 31 mph 1007.6mb 66f 64f
12:50 5ft 19s 5s 27 31 mph 1008.2mb 65f 64f
11:50 5ft 19s 5s 29 34 mph 1008.4mb 65f 63f
10:50 5ft 19s 5s 29 34 mph 1008.6mb 65f 64f
9:50 5ft 19s 5s 29 36 mph 1008.6mb 65f 64f
8:50 5ft 5s 5s 29 34 mph 1008.5mb 65f 64f
7:50 5ft 19s 5s 29 36 mph 1008.2mb 65f 64f
6:50 4.5ft 19s 5s 27 34 mph 1008mb 65f 63f
5:50 5ft 19s 5s 29 34 mph 1007.8mb 65f 64f
4:50 5ft 21s 5s 29 34 mph 1007.7mb 65f 64f
3:50 5ft 21s 5s 29 34 mph 1008mb 64f 64f
2:50 4.5ft 21s 5s 31 38 mph 1008.4mb 64f 64f
1:50 4.5ft 5s 5s 29 34 mph 1008.9mb 64f 65f
12:50 5ft 21s 5s 29 36 mph 1009.2mb 64f 65f
Mo 09/15 11:50 4.5ft 19s 5s 29 34 mph 1009.3mb 65f 65f
10:50 4.5ft 21s 5s 27 31 mph 1009.6mb 65f 65f
9:50 4.5ft 21s 4s 27 31 mph 1009.6mb 65f 65f
8:50 4.5ft 5s 4s 27 34 mph 1009.5mb 65f 65f
7:50 4.5ft 5s 4s 27 31 mph 1009.1mb 65f 65f
6:50 4ft 5s 4s 27 34 mph 1008.8mb 66f 65f
5:50 4.5ft 21s 5s 27 31 mph 1008.9mb 66f 65f
4:50 4.5ft 5s 4s 27 34 mph 1008.9mb 67f 65f
3:50 4.5ft 5s 4s 27 31 mph 1008.8mb 67f 65f
2:50 4ft 21s 5s 25 29 mph 1009.1mb 67f 65f
1:50 4.5ft 5s 5s 27 31 mph 1009.4mb 67f 64f
12:50 5ft 6s 5s 29 34 mph 1009.6mb 67f 63f
11:50 4.5ft 5s 5s 29 34 mph 1009.9mb 67f 63f
10:50 4.5ft 6s 5s 25 29 mph 1010mb 66f 63f
9:50 4.5ft 5s 5s 27 31 mph 1009.7mb 67f 63f
8:50 5ft 6s 5s 27 31 mph 1009.4mb 66f 63f
7:50 5ft 5s 5s 29 34 mph 1009mb 67f 63f
6:50 5ft 5s 5s 29 34 mph 1008.4mb 67f 63f
5:50 5ft 6s 5s 27 34 mph 1007.8mb 66f 63f
4:50 5ft 5s 5s 27 34 mph 1007.2mb 66f 63f
3:50 4.5ft 6s 5s 25 29 mph 1007mb 65f 64f
2:50 4.5ft 6s 5s 27 31 mph 1007mb 65f 64f
1:50 4.5ft 6s 5s 27 29 mph 1007.2mb 65f 64f
12:50 4.5ft 6s 5s 25 29 mph 1007.3mb 65f 64f
So 09/14 11:50 4.5ft 5s 5s 25 31 mph 1007.4mb 65f 64f
10:50 4.5ft 5s 5s 22 27 mph 1007.5mb 65f 65f
9:50 5.5ft 6s 5s 27 31 mph 1007.4mb 65f 64f
8:50 5ft 6s 5s 29 34 mph 1006.9mb 65f 64f
7:50 5ft 6s 5s 29 36 mph 1006.5mb 66f 64f
6:50 5.5ft 6s 5s 29 36 mph 1006.2mb 66f 64f
5:50 5ft 5s 5s 29 36 mph 1006.2mb 66f 64f
4:50 5ft 6s 5s 29 34 mph 1006.1mb 67f 64f
3:50 5ft 5s 5s 29 36 mph 1006.4mb 67f 64f
2:50 5ft 6s 5s 31 36 mph 1006.7mb 66f 64f
1:50 5.5ft 6s 5s 29 36 mph 1007mb 67f 64f
12:50 5ft 6s 5s 29 34 mph 1007.5mb 67f 63f
11:50 5ft 6s 5s 27 34 mph 1007.7mb 66f 63f
10:50 5ft 6s 5s 29 34 mph 1007.8mb 66f 63f
9:50 5ft 5s 5s 29 34 mph 1007.8mb 65f 62f
8:50 5ft 6s 5s 29 34 mph 1007.5mb 65f 63f
7:50 5ft 5s 5s 27 34 mph 1007.4mb 65f 62f
6:50 5ft 6s 5s 27 31 mph 1006.9mb 65f 62f
5:50 5ft 6s 5s 27 31 mph 1006.5mb 65f 62f
4:50 4.5ft 6s 5s 25 29 mph 1005.8mb 65f 62f
3:50 5ft 6s 5s 22 29 mph 1005.5mb 65f 63f
2:50 5ft 6s 5s 22 27 mph 1005.7mb 65f 63f
1:50 5ft 6s 5s 27 31 mph 1005.9mb 65f 63f
12:50 5.5ft 6s 5s 27 31 mph 1006.4mb 65f 63f
Sa 09/13 11:50 5.5ft 6s 5s 27 31 mph 1006.5mb 65f 63f
10:50 5ft 6s 5s 27 31 mph 1006.7mb 65f 63f
9:50 5.5ft 6s 5s 27 34 mph 1006.9mb 65f 63f
8:50 6ft 6s 5s 27 34 mph 1007.1mb 66f 62f
7:50 5.5ft 6s 5s 29 36 mph 1006.8mb 66f 63f
6:50 5.5ft 5s 5s 29 34 mph 1006.7mb 66f 63f
5:50 5.5ft 6s 5s 29 36 mph 1006.8mb 66f 64f
4:50 5.5ft 5s 5s 29 34 mph 1006.7mb 66f 63f
3:50 5ft 5s 5s 27 31 mph 1007mb 65f 63f
2:50 5ft 6s 5s 25 29 mph 1007.7mb 65f 63f
1:50 5ft 5s 5s 25 27 mph 1008.2mb 65f 62f
12:50 4.5ft 6s 5s 22 27 mph 1008.5mb 65f 62f
11:50 4.5ft 5s 5s 22 27 mph 1008.6mb 65f 62f
10:50 4.5ft 6s 5s 22 27 mph 1009.2mb 63f 61f
9:50 4.5ft 11s 5s 20 25 mph 1009.2mb 63f 60f
8:50 4.5ft 5s 5s 22 27 mph 1008.8mb 63f 60f
7:50 5ft 5s 5s 22 27 mph 1008.6mb 62f 60f
6:50 5ft 6s 5s 22 29 mph 1007.9mb 62f 60f